createdAt,value
2019-05-19T00:01:18.015Z,18.90
2019-05-19T00:03:48.262Z,18.90
2019-05-19T00:06:19.018Z,18.80
2019-05-19T00:08:49.314Z,18.80
2019-05-19T00:11:19.819Z,18.80
2019-05-19T00:13:50.111Z,18.80
2019-05-19T00:16:20.369Z,18.80
2019-05-19T00:18:50.606Z,18.80
2019-05-19T00:21:20.796Z,18.80
2019-05-19T00:23:51.183Z,18.70
2019-05-19T00:26:21.738Z,18.80
2019-05-19T00:28:52.437Z,18.70
2019-05-19T00:31:22.846Z,18.70
2019-05-19T00:33:53.140Z,18.70
2019-05-19T00:36:23.718Z,18.70
2019-05-19T00:38:54.370Z,18.70
2019-05-19T00:41:24.576Z,18.70
2019-05-19T00:43:54.991Z,18.60
2019-05-19T00:46:37.227Z,18.60
2019-05-19T00:49:07.561Z,18.60
2019-05-19T00:51:38.403Z,18.60
2019-05-19T00:54:09.096Z,18.60
2019-05-19T00:56:39.784Z,18.60
2019-05-19T00:59:11.001Z,18.60
2019-05-19T01:01:41.315Z,18.60
2019-05-19T01:04:11.731Z,18.60
2019-05-19T01:06:42.032Z,18.50
2019-05-19T01:09:13.479Z,18.50
2019-05-19T01:11:44.140Z,18.50
2019-05-19T01:14:15.430Z,18.50
2019-05-19T01:16:46.128Z,18.40
2019-05-19T01:19:16.353Z,18.40
2019-05-19T01:21:47.129Z,18.40
2019-05-19T01:24:17.405Z,18.40
2019-05-19T01:26:47.620Z,18.40
2019-05-19T01:29:17.886Z,18.40
2019-05-19T01:31:48.158Z,18.30
2019-05-19T01:34:18.722Z,18.30
2019-05-19T01:36:49.291Z,18.30
2019-05-19T01:39:19.921Z,18.30
2019-05-19T01:41:50.175Z,18.30
2019-05-19T01:44:20.367Z,18.30
2019-05-19T01:46:50.928Z,18.30
2019-05-19T01:49:21.530Z,18.20
2019-05-19T01:51:52.172Z,18.20
2019-05-19T01:54:22.375Z,18.20
2019-05-19T01:56:52.989Z,18.20
2019-05-19T01:59:23.475Z,18.20
2019-05-19T02:01:54.898Z,18.20
2019-05-19T02:04:25.956Z,18.10
2019-05-19T02:06:56.565Z,18.10
2019-05-19T02:09:26.856Z,18.10
2019-05-19T02:11:57.124Z,18.10
2019-05-19T02:14:27.415Z,18.10
2019-05-19T02:16:57.780Z,18.10
2019-05-19T02:19:28.309Z,18.10
2019-05-19T02:21:58.852Z,18.00
2019-05-19T02:24:29.108Z,18.00
2019-05-19T02:26:59.363Z,18.00
2019-05-19T02:29:29.787Z,18.00
2019-05-19T02:32:00.405Z,18.00
2019-05-19T02:34:30.779Z,18.00
2019-05-19T02:37:01.472Z,18.00
2019-05-19T02:39:31.790Z,17.90
2019-05-19T02:42:04.400Z,17.90
2019-05-19T02:44:36.815Z,17.90
2019-05-19T02:47:08.124Z,17.90
2019-05-19T02:49:39.609Z,17.90
2019-05-19T02:52:11.769Z,17.90
2019-05-19T02:54:42.445Z,17.90
2019-05-19T02:57:12.773Z,17.90
2019-05-19T02:59:45.267Z,17.80
2019-05-19T03:02:15.545Z,17.90
2019-05-19T03:04:47.486Z,17.80
2019-05-19T03:07:17.623Z,17.80
2019-05-19T03:09:52.548Z,17.80
2019-05-19T03:12:23.377Z,17.80
2019-05-19T03:14:54.048Z,17.80
2019-05-19T03:17:25.873Z,17.80
2019-05-19T03:19:56.173Z,17.80
2019-05-19T03:22:26.640Z,17.80
2019-05-19T03:24:57.244Z,17.70
2019-05-19T03:27:27.490Z,17.70
2019-05-19T03:29:59.752Z,17.70
2019-05-19T03:32:37.905Z,17.70
2019-05-19T03:35:08.305Z,17.70
2019-05-19T03:37:38.895Z,17.70
2019-05-19T03:40:20.458Z,17.70
2019-05-19T03:42:53.670Z,17.70
2019-05-19T03:45:23.929Z,17.60
2019-05-19T03:47:54.226Z,17.60
2019-05-19T03:50:24.855Z,17.60
2019-05-19T03:52:55.019Z,17.60
2019-05-19T03:55:25.677Z,17.60
2019-05-19T03:57:56.341Z,17.60
2019-05-19T04:00:26.770Z,17.60
2019-05-19T04:02:57.376Z,17.60
2019-05-19T04:05:27.680Z,17.60
2019-05-19T04:07:58.042Z,17.60
2019-05-19T04:10:28.333Z,17.60
2019-05-19T04:12:58.534Z,17.50
2019-05-19T04:15:29.118Z,17.60
2019-05-19T04:17:59.435Z,17.50
2019-05-19T04:20:29.721Z,17.50
2019-05-19T04:23:00.284Z,17.50
2019-05-19T04:25:30.908Z,17.50
2019-05-19T04:28:01.449Z,17.50
2019-05-19T04:30:31.738Z,17.50
2019-05-19T04:33:01.914Z,17.50
2019-05-19T04:35:32.153Z,17.50
2019-05-19T04:38:02.435Z,17.50
2019-05-19T04:40:32.727Z,17.50
2019-05-19T04:43:02.981Z,17.50
2019-05-19T04:45:33.478Z,17.50
2019-05-19T04:48:09.216Z,17.40
2019-05-19T04:50:37.640Z,17.40
2019-05-19T04:53:08.368Z,17.40
2019-05-19T04:55:38.676Z,17.40
2019-05-19T04:58:10.106Z,17.40
2019-05-19T05:00:40.358Z,17.40
2019-05-19T05:03:10.518Z,17.40
2019-05-19T05:05:40.834Z,17.50
2019-05-19T05:08:28.056Z,17.50
2019-05-19T05:10:43.563Z,17.50
2019-05-19T05:13:13.785Z,17.50
2019-05-19T05:15:45.199Z,17.50
2019-05-19T05:18:15.864Z,17.50
2019-05-19T05:20:46.075Z,17.50
2019-05-19T05:23:16.347Z,17.50
2019-05-19T05:25:46.854Z,17.50
2019-05-19T05:28:17.081Z,17.50
2019-05-19T05:30:47.706Z,17.50
2019-05-19T05:33:18.453Z,17.50
2019-05-19T05:35:49.148Z,17.50
2019-05-19T05:38:19.781Z,17.50
2019-05-19T05:40:50.445Z,17.50
2019-05-19T05:43:21.075Z,17.50
2019-05-19T05:45:51.381Z,17.50
2019-05-19T05:48:21.552Z,17.50
2019-05-19T05:50:52.694Z,17.50
2019-05-19T05:53:22.928Z,17.50
2019-05-19T05:55:53.168Z,17.50
2019-05-19T05:58:23.428Z,17.50
2019-05-19T06:00:54.176Z,17.60
2019-05-19T06:03:24.449Z,17.60
2019-05-19T06:05:55.080Z,17.60
2019-05-19T06:08:25.335Z,17.60
2019-05-19T06:10:56.525Z,17.70
2019-05-19T06:13:26.838Z,17.70
2019-05-19T06:15:58.363Z,17.70
2019-05-19T06:18:28.705Z,17.70
2019-05-19T06:20:59.022Z,17.70
2019-05-19T06:23:29.507Z,17.70
2019-05-19T06:25:59.733Z,17.70
2019-05-19T06:28:30.029Z,17.70
2019-05-19T06:31:00.615Z,17.70
2019-05-19T06:33:30.910Z,17.70
2019-05-19T06:36:03.035Z,17.80
2019-05-19T06:38:34.134Z,17.80
2019-05-19T06:41:04.799Z,17.90
2019-05-19T06:43:35.481Z,17.90
2019-05-19T06:46:05.877Z,18.00
2019-05-19T06:48:36.151Z,18.00
2019-05-19T06:51:06.370Z,18.10
2019-05-19T06:53:37.039Z,18.10
2019-05-19T06:56:07.719Z,18.10
2019-05-19T06:58:37.992Z,18.20
2019-05-19T07:01:08.346Z,18.30
2019-05-19T07:03:38.941Z,18.40
2019-05-19T07:06:09.250Z,18.40
2019-05-19T07:08:40.932Z,18.50
2019-05-19T07:11:11.544Z,18.60
2019-05-19T07:13:42.157Z,18.70
2019-05-19T07:16:13.673Z,18.70
2019-05-19T07:18:43.948Z,18.80
2019-05-19T07:21:14.329Z,18.80
2019-05-19T07:23:44.519Z,18.90
2019-05-19T07:26:15.110Z,19.00
2019-05-19T07:28:45.705Z,19.00
2019-05-19T07:31:17.115Z,19.10
2019-05-19T07:33:47.401Z,19.30
2019-05-19T07:36:18.096Z,19.40
2019-05-19T07:38:48.664Z,19.40
2019-05-19T07:41:18.993Z,19.50
2019-05-19T07:43:49.321Z,19.50
2019-05-19T07:46:19.633Z,19.40
2019-05-19T07:48:50.215Z,19.40
2019-05-19T07:51:20.423Z,19.40
2019-05-19T07:53:50.853Z,19.40
2019-05-19T07:56:21.377Z,19.30
2019-05-19T07:58:51.660Z,19.40
2019-05-19T08:01:22.130Z,19.50
2019-05-19T08:03:52.393Z,19.60
2019-05-19T08:06:22.735Z,19.60
2019-05-19T08:08:53.008Z,19.60
2019-05-19T08:11:23.297Z,19.70
2019-05-19T08:13:53.851Z,19.80
2019-05-19T08:16:24.459Z,20.00
2019-05-19T08:18:54.763Z,20.00
2019-05-19T08:21:25.558Z,20.10
2019-05-19T08:24:00.572Z,20.20
2019-05-19T08:26:28.339Z,20.30
2019-05-19T08:28:58.568Z,20.30
2019-05-19T08:31:29.098Z,20.40
2019-05-19T08:33:59.615Z,20.60
2019-05-19T08:36:30.370Z,20.70
2019-05-19T08:39:00.551Z,20.70
2019-05-19T08:41:30.992Z,20.80
2019-05-19T08:44:02.315Z,20.90
2019-05-19T08:46:32.881Z,20.90
2019-05-19T08:49:03.162Z,20.90
2019-05-19T08:51:33.835Z,20.90
2019-05-19T08:54:14.365Z,20.90
2019-05-19T08:56:36.364Z,21.00
2019-05-19T08:59:06.654Z,21.00
2019-05-19T09:01:36.956Z,21.10
2019-05-19T09:04:08.028Z,21.10
2019-05-19T09:06:38.326Z,21.10
2019-05-19T09:09:08.618Z,21.20
2019-05-19T09:11:39.905Z,21.30
2019-05-19T09:14:10.206Z,21.50
2019-05-19T09:16:41.188Z,21.60
2019-05-19T09:19:12.221Z,21.60
2019-05-19T09:21:42.907Z,21.50
2019-05-19T09:24:30.164Z,21.50
2019-05-19T09:26:51.076Z,21.50
2019-05-19T09:29:21.705Z,21.40
2019-05-19T09:31:52.016Z,21.40
2019-05-19T09:34:22.335Z,21.30
2019-05-19T09:36:53.454Z,21.40
2019-05-19T09:39:24.012Z,21.40
2019-05-19T09:41:54.342Z,21.40
2019-05-19T09:44:24.588Z,21.50
2019-05-19T09:46:54.979Z,21.60
2019-05-19T09:49:35.138Z,21.80
2019-05-19T09:52:07.299Z,22.00
2019-05-19T09:54:45.103Z,22.10
2019-05-19T09:57:09.736Z,22.20
2019-05-19T09:59:40.051Z,22.20
2019-05-19T10:02:10.372Z,22.20
2019-05-19T10:04:40.947Z,22.30
2019-05-19T10:07:12.058Z,22.40
2019-05-19T10:09:57.037Z,22.70
2019-05-19T10:12:28.811Z,22.80
2019-05-19T10:15:00.033Z,22.80
2019-05-19T10:17:30.394Z,22.80
2019-05-19T10:20:00.767Z,22.80
2019-05-19T10:22:31.461Z,22.80
2019-05-19T10:25:20.239Z,22.80
2019-05-19T10:27:34.241Z,22.90
2019-05-19T10:30:07.982Z,22.90
2019-05-19T10:32:38.978Z,23.00
2019-05-19T10:35:09.551Z,23.00
2019-05-19T10:37:42.690Z,23.10
2019-05-19T10:40:12.966Z,23.20
2019-05-19T10:42:43.877Z,23.10
2019-05-19T10:45:14.503Z,23.10
2019-05-19T10:47:44.974Z,23.10
2019-05-19T10:50:15.419Z,23.20
2019-05-19T10:52:45.777Z,23.20
2019-05-19T10:55:16.136Z,23.20
2019-05-19T10:57:46.828Z,23.20
2019-05-19T11:00:17.244Z,23.30
2019-05-19T11:02:47.714Z,23.30
2019-05-19T11:05:18.118Z,23.30
2019-05-19T11:07:48.837Z,23.20
2019-05-19T11:10:19.627Z,23.20
2019-05-19T11:12:50.226Z,23.20
2019-05-19T11:15:20.831Z,23.20
2019-05-19T11:17:51.471Z,23.20
2019-05-19T11:20:21.678Z,23.30
2019-05-19T11:22:52.021Z,23.30
2019-05-19T11:25:33.346Z,23.40
2019-05-19T11:27:56.282Z,23.50
2019-05-19T11:30:26.641Z,23.60
2019-05-19T11:32:57.021Z,23.70
2019-05-19T11:35:27.692Z,23.70
2019-05-19T11:37:58.403Z,23.80
2019-05-19T11:40:28.943Z,23.80
2019-05-19T11:42:59.631Z,23.80
2019-05-19T11:45:29.870Z,23.90
2019-05-19T11:48:00.117Z,24.00
2019-05-19T11:50:30.384Z,24.00
2019-05-19T11:53:00.992Z,24.00
2019-05-19T11:55:31.216Z,24.00
2019-05-19T11:58:01.789Z,24.10
2019-05-19T12:00:32.081Z,24.20
2019-05-19T12:03:02.368Z,24.30
2019-05-19T12:05:32.817Z,24.40
2019-05-19T12:08:03.923Z,24.60
2019-05-19T12:10:34.260Z,24.70
2019-05-19T12:13:05.410Z,24.90
2019-05-19T12:15:35.733Z,24.90
2019-05-19T12:18:06.421Z,24.90
2019-05-19T12:20:36.715Z,25.00
2019-05-19T12:23:06.962Z,25.10
2019-05-19T12:25:37.291Z,25.00
2019-05-19T12:28:07.603Z,24.90
2019-05-19T12:30:37.980Z,24.70
2019-05-19T12:33:08.560Z,24.50
2019-05-19T12:35:38.904Z,24.30
2019-05-19T12:38:12.404Z,24.10
2019-05-19T12:40:44.634Z,23.90
2019-05-19T12:43:15.382Z,23.80
2019-05-19T12:45:46.278Z,23.70
2019-05-19T12:48:16.676Z,23.50
2019-05-19T12:50:46.886Z,23.40
2019-05-19T12:53:43.096Z,23.40
2019-05-19T12:56:13.783Z,23.30
2019-05-19T12:58:44.839Z,23.20
2019-05-19T13:01:15.201Z,23.20
2019-05-19T13:03:46.166Z,23.10
2019-05-19T13:06:17.049Z,23.10
2019-05-19T13:08:47.660Z,23.00
2019-05-19T13:11:18.353Z,23.00
2019-05-19T13:13:48.742Z,22.90
2019-05-19T13:16:20.209Z,22.90
2019-05-19T13:18:50.622Z,22.90
2019-05-19T13:21:20.974Z,22.80
2019-05-19T13:23:51.340Z,22.80
2019-05-19T13:39:05.114Z,22.70
2019-05-19T13:41:36.015Z,22.60
2019-05-19T13:44:06.412Z,22.60
2019-05-19T13:46:36.703Z,22.50
2019-05-19T13:49:07.913Z,22.50
2019-05-19T13:51:38.593Z,22.40
2019-05-19T13:54:09.016Z,22.40
2019-05-19T13:56:39.803Z,22.40
2019-05-19T13:59:10.413Z,22.30
2019-05-19T14:01:40.746Z,22.30
2019-05-19T14:04:11.192Z,22.30
2019-05-19T14:06:42.739Z,22.20
2019-05-19T14:09:15.203Z,22.10
2019-05-19T14:11:44.994Z,22.00
2019-05-19T14:14:15.670Z,22.00
2019-05-19T14:16:45.994Z,22.00
2019-05-19T14:19:16.284Z,22.00
2019-05-19T14:21:47.403Z,21.90
2019-05-19T14:24:17.676Z,21.90
2019-05-19T14:26:48.001Z,21.80
2019-05-19T14:29:18.335Z,21.80
2019-05-19T14:31:48.793Z,21.70
2019-05-19T14:34:19.581Z,21.60
2019-05-19T14:36:49.839Z,21.60
2019-05-19T14:39:20.157Z,21.50
2019-05-19T14:41:54.709Z,21.50
2019-05-19T14:44:25.383Z,21.50
2019-05-19T14:46:55.617Z,21.40
2019-05-19T14:49:26.307Z,21.30
2019-05-19T14:51:56.691Z,21.30
2019-05-19T14:54:27.044Z,21.30
2019-05-19T15:09:38.063Z,21.20
2019-05-19T15:12:08.842Z,20.70
2019-05-19T15:14:39.133Z,20.40
2019-05-19T15:17:09.718Z,20.10
2019-05-19T15:19:50.242Z,19.80
2019-05-19T15:22:20.908Z,19.60
2019-05-19T15:24:51.224Z,19.40
2019-05-19T15:27:21.585Z,19.30
2019-05-19T15:29:51.925Z,19.30
2019-05-19T15:32:22.230Z,19.30
2019-05-19T15:34:52.559Z,19.20
2019-05-19T15:37:24.955Z,19.20
2019-05-19T15:39:55.228Z,19.20
2019-05-19T15:42:25.466Z,19.20
2019-05-19T15:44:55.820Z,19.30
2019-05-19T15:47:26.146Z,19.30
2019-05-19T15:49:56.415Z,19.30
2019-05-19T15:52:27.382Z,19.30
2019-05-19T15:54:57.785Z,19.30
2019-05-19T15:57:28.721Z,19.30
2019-05-19T15:59:59.340Z,19.30
2019-05-19T16:02:29.673Z,19.30
2019-05-19T16:04:59.914Z,19.40
2019-05-19T16:07:30.243Z,19.40
2019-05-19T16:10:00.587Z,19.50
2019-05-19T16:12:30.859Z,19.50
2019-05-19T16:15:01.240Z,19.40
2019-05-19T16:17:31.842Z,19.40
2019-05-19T16:20:04.511Z,19.40
2019-05-19T16:22:36.317Z,19.40
2019-05-19T16:25:07.793Z,19.40
2019-05-19T16:27:37.962Z,19.40
2019-05-19T16:30:08.756Z,19.40
2019-05-19T16:32:39.642Z,19.40
2019-05-19T16:35:10.176Z,19.30
2019-05-19T16:37:40.572Z,19.30
2019-05-19T16:40:11.531Z,19.30
2019-05-19T16:42:42.096Z,19.30
2019-05-19T16:45:14.238Z,19.20
2019-05-19T16:47:44.514Z,19.20
2019-05-19T16:50:16.064Z,19.20
2019-05-19T16:52:46.369Z,19.20
2019-05-19T16:55:25.311Z,19.20
2019-05-19T16:57:56.056Z,19.20
2019-05-19T17:00:27.768Z,19.30
2019-05-19T17:02:58.156Z,19.30
2019-05-19T17:05:29.769Z,19.30
2019-05-19T17:08:00.813Z,19.40
2019-05-19T17:10:31.070Z,19.40
2019-05-19T17:13:01.670Z,19.40
2019-05-19T17:15:32.050Z,19.40
2019-05-19T17:18:02.344Z,19.30
2019-05-19T17:20:32.680Z,19.40
2019-05-19T17:23:03.159Z,19.40
2019-05-19T17:25:33.406Z,19.40
2019-05-19T17:28:03.688Z,19.40
2019-05-19T17:30:34.978Z,19.40
2019-05-19T17:33:05.463Z,19.40
2019-05-19T17:35:35.886Z,19.40
2019-05-19T17:38:06.477Z,19.30
2019-05-19T17:40:37.007Z,19.30
2019-05-19T17:43:07.698Z,19.30
2019-05-19T17:45:38.054Z,19.30
2019-05-19T17:48:11.652Z,19.30
2019-05-19T17:50:40.242Z,19.30
2019-05-19T17:53:10.899Z,19.30
2019-05-19T17:55:43.372Z,19.30
2019-05-19T17:58:13.691Z,19.30
2019-05-19T18:00:44.458Z,19.20
2019-05-19T18:03:14.744Z,19.20
2019-05-19T18:05:45.408Z,19.20
2019-05-19T18:08:15.848Z,19.10
2019-05-19T18:10:46.108Z,19.10
2019-05-19T18:13:16.783Z,19.10
2019-05-19T18:15:47.360Z,19.00
2019-05-19T18:18:17.761Z,19.00
2019-05-19T18:20:47.949Z,19.00
2019-05-19T18:23:18.899Z,19.00
2019-05-19T18:25:49.191Z,18.90
2019-05-19T18:28:19.515Z,18.90
2019-05-19T18:30:49.821Z,18.90
2019-05-19T18:33:20.131Z,18.90
2019-05-19T18:35:50.454Z,18.90
2019-05-19T18:38:20.833Z,18.90
2019-05-19T18:40:51.131Z,18.80
2019-05-19T18:43:21.595Z,18.80
2019-05-19T18:45:51.888Z,18.80
2019-05-19T18:48:23.435Z,18.80
2019-05-19T18:50:54.621Z,18.80
2019-05-19T18:53:25.271Z,18.70
2019-05-19T18:55:55.890Z,18.70
2019-05-19T18:58:28.035Z,18.70
2019-05-19T19:00:58.324Z,18.70
2019-05-19T19:03:28.658Z,18.70
2019-05-19T19:05:58.889Z,18.60
2019-05-19T19:08:29.411Z,18.60
2019-05-19T19:10:59.641Z,18.60
2019-05-19T19:13:30.371Z,18.60
2019-05-19T19:16:00.623Z,18.50
2019-05-19T19:18:30.995Z,18.50
2019-05-19T19:21:01.447Z,18.50
2019-05-19T19:23:32.502Z,18.50
2019-05-19T19:26:03.205Z,18.40
2019-05-19T19:28:34.246Z,18.40
2019-05-19T19:31:04.461Z,18.40
2019-05-19T19:33:34.778Z,18.30
2019-05-19T19:36:05.117Z,18.30
2019-05-19T19:38:35.532Z,18.30
2019-05-19T19:41:05.845Z,18.30
2019-05-19T19:43:36.483Z,18.20
2019-05-19T19:46:06.777Z,18.10
2019-05-19T19:48:37.071Z,18.10
2019-05-19T19:51:07.374Z,18.10
2019-05-19T19:53:37.720Z,18.10
2019-05-19T19:56:08.172Z,18.10
2019-05-19T19:58:38.419Z,18.00
2019-05-19T20:01:08.735Z,18.00
2019-05-19T20:03:40.550Z,18.00
2019-05-19T20:06:11.092Z,17.90
2019-05-19T20:08:41.890Z,17.90
2019-05-19T20:11:12.683Z,17.90
2019-05-19T20:13:42.926Z,17.80
2019-05-19T20:16:14.026Z,17.70
2019-05-19T20:18:44.384Z,17.60
2019-05-19T20:21:14.764Z,17.60
2019-05-19T20:23:45.079Z,17.50
2019-05-19T20:26:15.362Z,17.50
2019-05-19T20:28:45.664Z,17.50
2019-05-19T20:31:15.967Z,17.50
2019-05-19T20:33:46.233Z,17.40
2019-05-19T20:36:16.393Z,17.40
2019-05-19T20:38:46.775Z,17.40
2019-05-19T20:41:18.536Z,17.40
2019-05-19T20:43:50.197Z,17.40
2019-05-19T20:46:20.750Z,17.30
2019-05-19T20:48:51.008Z,17.30
2019-05-19T20:51:21.640Z,17.30
2019-05-19T20:53:53.409Z,17.30
2019-05-19T20:56:23.721Z,17.30
2019-05-19T20:58:54.371Z,17.30
2019-05-19T21:01:24.612Z,17.30
2019-05-19T21:03:54.990Z,17.30
2019-05-19T21:06:25.264Z,17.30
2019-05-19T21:08:55.590Z,17.20
2019-05-19T21:11:26.764Z,17.20
2019-05-19T21:13:57.090Z,17.10
2019-05-19T21:16:27.785Z,17.10
2019-05-19T21:19:11.908Z,17.10
2019-05-19T21:21:42.072Z,17.00
2019-05-19T21:24:12.408Z,17.00
2019-05-19T21:26:43.006Z,17.00
2019-05-19T21:29:13.331Z,17.00
2019-05-19T21:31:43.623Z,17.00
2019-05-19T21:34:14.321Z,16.90
2019-05-19T21:36:45.941Z,16.90
2019-05-19T21:39:16.520Z,16.90
2019-05-19T21:41:46.731Z,16.80
2019-05-19T21:44:17.212Z,16.90
2019-05-19T21:46:47.830Z,16.90
2019-05-19T21:49:18.150Z,16.90
2019-05-19T21:51:49.597Z,16.90
2019-05-19T21:54:19.930Z,16.90
2019-05-19T21:56:50.241Z,16.90
2019-05-19T21:59:20.472Z,16.90
2019-05-19T22:01:50.992Z,16.90
2019-05-19T22:04:21.301Z,16.90
2019-05-19T22:06:58.755Z,16.90
2019-05-19T22:09:29.295Z,16.90
2019-05-19T22:11:59.575Z,16.90
2019-05-19T22:14:30.051Z,16.90
2019-05-19T22:17:00.593Z,16.80
2019-05-19T22:19:30.915Z,16.90
2019-05-19T22:22:01.204Z,16.80
2019-05-19T22:24:31.538Z,16.80
2019-05-19T22:27:02.179Z,16.80
2019-05-19T22:29:32.505Z,16.80
2019-05-19T22:32:02.805Z,16.80
2019-05-19T22:34:33.468Z,16.80
2019-05-19T22:37:03.762Z,16.80
2019-05-19T22:39:34.076Z,16.80
2019-05-19T22:42:04.771Z,16.80
2019-05-19T22:44:35.118Z,16.80
2019-05-19T22:47:05.360Z,16.80
2019-05-19T22:49:36.041Z,16.80
2019-05-19T22:52:06.958Z,16.80
2019-05-19T22:54:37.203Z,16.80
2019-05-19T22:57:07.469Z,16.80
2019-05-19T22:59:37.851Z,16.80
2019-05-19T23:02:09.363Z,16.80
2019-05-19T23:04:39.781Z,16.80
2019-05-19T23:07:10.427Z,16.80
2019-05-19T23:09:42.532Z,16.80
2019-05-19T23:12:12.711Z,16.70
2019-05-19T23:14:43.108Z,16.70
2019-05-19T23:17:14.020Z,16.70
2019-05-19T23:19:44.646Z,16.70
2019-05-19T23:22:14.938Z,16.70
2019-05-19T23:24:45.481Z,16.70
2019-05-19T23:27:16.014Z,16.70
2019-05-19T23:29:46.331Z,16.70
2019-05-19T23:32:16.478Z,16.70
2019-05-19T23:34:47.097Z,16.60
2019-05-19T23:37:17.288Z,16.70
2019-05-19T23:39:48.493Z,16.60
2019-05-19T23:42:18.905Z,16.60
2019-05-19T23:44:49.473Z,16.60
2019-05-19T23:47:19.749Z,16.60
2019-05-19T23:49:58.185Z,16.50
2019-05-19T23:52:30.045Z,16.60
2019-05-19T23:55:01.027Z,16.50
2019-05-19T23:57:31.709Z,16.60
